• Join FlightAware (Why Join?)
  • Login
  • US Flag 
03:48AM EST


 

Airport Tracker/Info


-or-


 

Live Flight TrackerFlight Track Log ✈ QXE2087 ✈ 31-Jul-2014 ✈ KALW - KSEA

Flight Track Log - Related Links

Times and Time Zones

All times are in EDT time to prevent confusion due to time zone crossing. See the QXE2087 flight status page for this flight to view local times or setup timezone preferences in your user account.

Time Position Orientation Groundspeed Altitude Reporting Facility
EDT Latitude Longitude Course Direction KTS MPH feet Rate Location/Type
09:14AM 46.2229 -118.9401 287° West  Level FlightAware Approximate
09:15AM 46.2397 -119.0185 287° West  Level FlightAware Approximate
09:16AM 46.2500 -119.0983 270° West  Level FlightAware Approximate
09:17AM 46.2690 -119.1756 290° West  Level FlightAware Approximate
09:18AM 46.2884 -119.2529 290° West  Level FlightAware Approximate
09:19AM 46.3077 -119.3301 290° West  Level FlightAware Approximate
09:20AM 46.3269 -119.4075 290° West  Level FlightAware Approximate
09:21AM 46.3395 -119.4870 284° West  Level FlightAware Approximate
09:22AM 46.3541 -119.5664 290° West  Level FlightAware Approximate
09:23AM 46.3735 -119.6438 290° West  Level FlightAware Approximate
09:24AM 46.3944 -119.7202 294° West  Level FlightAware Approximate
09:25AM 46.4171 -119.7957 294° West  Level FlightAware Approximate
09:26AM 46.4371 -119.8726 284° West  Level FlightAware Approximate
09:27AM 46.4506 -119.9526 290° West  Level FlightAware Approximate
09:28AM 46.4766 -120.0591 289° West  Level FlightAware Approximate
09:29AM 46.5024 -120.1658 289° West  Level FlightAware Approximate
09:30AM 46.5281 -120.2725 289° West  Level FlightAware Approximate
09:31AM 46.5538 -120.3794 289° West  Level FlightAware Approximate
09:32AM 46.5852 -120.4826 299° West  Level FlightAware Approximate
09:33AM 46.6251 -120.5792 314° West  Level FlightAware Approximate
09:34AM 46.6723 -120.6686 302° West  Level FlightAware Approximate
09:35AM 46.7150 -120.7634 306° West  Level FlightAware Approximate
09:36AM 46.7565 -120.8595 302° West  Level FlightAware Approximate
09:37AM 46.8014 -120.9527 306° West  Level FlightAware Approximate
09:38AM 46.8474 -121.0448 306° West  Level FlightAware Approximate
09:39AM 46.8903 -121.1403 303° West  Level FlightAware Approximate
09:40AM 46.9329 -121.2361 303° West  Level FlightAware Approximate
09:41AM 46.9754 -121.3320 303° West  Level FlightAware Approximate
09:42AM 47.0256 -121.4074 303° West  Level FlightAware Approximate
09:43AM 47.0676 -121.5039 290° West  Level FlightAware Approximate
09:44AM 47.1043 -121.6032 310° West  Level FlightAware Approximate
09:45AM 47.1500 -121.6935 270° West  Level FlightAware Approximate
09:46AM 47.1936 -121.7872 306° West  Level FlightAware Approximate
09:47AM 47.2406 -121.8765 301° West  Level FlightAware Approximate
09:48AM 47.2899 -121.9784 320° Northwest  Level Estimated
09:49AM 47.2806 -122.1029 264° West  Level FlightAware Approximate
09:50AM 47.2899 -121.9784 84° East  Level FlightAware Approximate
09:51AM 47.3391 -122.0806 316° Northwest  Level Estimated
09:52AM 47.3822 -122.1886 301° West  Level FlightAware Approximate
09:53AM 47.4333 -122.3000 306° West  Level FlightAware Approximate
09:54AM 47.4499 -122.3118 306° West  Level Estimated
09:55AM 47.4499 -122.3118 306° West  Level Estimated
09:56AM 47.4499 -122.3118 306° West  Level Estimated
09:57AM 47.4499 -122.3118 306° West  Level Estimated
09:58AM 47.4499 -122.3118 306° West  Level Estimated
09:59AM 47.4499 -122.3118 306° West  Level Estimated
10:00AM 47.4499 -122.3118 306° West  Level Estimated
10:01AM 47.4499 -122.3118 306° West  Level Estimated
10:02AM 47.4499 -122.3118 306° West  Level Estimated
10:03AM 47.4499 -122.3118 306° West  Level Estimated
10:04AM 47.4499 -122.3118 306° West  Level Estimated
10:05AM 47.4499 -122.3118 306° West  Level Estimated
10:06AM 47.4499 -122.3118 306° West  Level Estimated
10:07AM 47.4499 -122.3118 306° West  Level Estimated